Aérodrome :
LOGIN :

S'inscrire | Disclaimer

   EN    FR    IT 

 










Légende :    VFR   VFR Marginal   IFR   IFR Intensif   IFR Très Intensif
Visi : 
Plafond : 
>= 8 km
>= 3000ft
5 à 8 km
1000 à 3000 ft
1500m à 5 km
500 à 1000 ft
800 à 1500m
200 à 500 ft
< 800m
< 200 ft
Symboles :   Orages  Brouillard  Fortes neiges  Fortes précipitations  Vent > 20 kt
SIGMETs :   Divers  Orages  Givrage  Turbulence  Onde Orograph.  Cendres Volcan.






- Altitude de l'aérodrome : 375 ft
- Code IATA : MST


EHBK - Maastricht Aachen

DERNIER METAR :
  • 130855Z AUTO 23014KT 200V290 9999 SCT017 BKN021 OVC025 14/10 Q1013 NOSIG

METARs EXPIRÉS :
  • 130825Z AUTO 23014KT 200V260 9999 BKN015 OVC025 14/11 Q1013 NOSIG
  • 130755Z AUTO 24012KT 200V280 9999 SCT014 BKN017 BKN020 14/11 Q1013 NOSIG
  • 130725Z AUTO 23011KT 200V280 9999 FEW016 OVC025 14/11 Q1013 NOSIG
  • 130655Z AUTO 23011KT 200V260 9999 SCT010 SCT013 OVC024 13/11 Q1013 NOSIG
  • 130625Z AUTO 23012KT 200V270 9999 FEW009 BKN010 OVC013 13/11 Q1013 NOSIG
  • 130555Z AUTO 23012KT 190V250 9999 FEW009 SCT010 OVC025 12/11 Q1013 NOSIG
  • 130525Z AUTO 23011KT 9999 OVC025 12/11 Q1013 NOSIG
  • 130455Z AUTO 23011KT 9999 FEW008 OVC026 12/11 Q1013 NOSIG
  • 130425Z AUTO 23010KT 9999 FEW008 BKN010 BKN012 11/10 Q1013 BECMG SCT035

TAF TAF EHBK
Valide du 13 à 06h jusqu'au 14 à 12h UTC


130459Z 1306/1412 23010KT 9999 SCT020
PROB30
TEMPO 1307/1311 7000 RA -SHRA FEW018TCU BKN020
PROB30
TEMPO 1314/1319 6000 SHRA FEW020CB
BECMG 1321/1324 17004KT
PROB30
TEMPO 1322/1402 6000 MIFG
BECMG 1409/1412 24010KT



MET'MAP, la Météo Aéronautique d'un coup d'oeil ! - Copyright ORBIFLY Décembre 2007 - Disclaimer

ORBIFLY MET'MAP TEAM :

Programmation & Développement : Alexandra Zaïnal
Sur une idée originale de : Baudouin d'Aumeries
Soutien technique & logistique : Manuel Goepfert
Assistance : Marc-Olivier Méhu




SOURCES & CREDITS :

   NOAA